Time;durP1;ratioP1;P1;durP2;ratioP2;P2;SDS_P1;SDS_P2;PMS_P1;PMS_P2;Temp;Humidity;BMP_temperature;BMP_pressure;BME280_temperature;BME280_humidity;BME280_pressure;Samples;Min_cycle;Max_cycle;Signal;HPM_P1;HPM_P2
2023/10/01 00:00:12;;;;;;;9.20;8.50;;;16.10;99.90;;;;;;4975799;28;20431;-61
2023/10/01 00:02:41;;;;;;;12.53;9.20;;;16.10;99.90;;;;;;4975614;28;20417;-61
2023/10/01 00:05:08;;;;;;;10.20;9.20;;;16.10;99.90;;;;;;4976036;28;20416;-66
2023/10/01 00:07:37;;;;;;;10.70;9.20;;;16.10;99.90;;;;;;4975088;28;20437;-66
2023/10/01 00:10:11;;;;;;;10.37;9.27;;;16.20;99.90;;;;;;4972508;28;21874;-66
2023/10/01 00:12:54;;;;;;;9.53;8.50;;;16.20;99.90;;;;;;4974471;28;20435;-66
2023/10/01 00:15:24;;;;;;;10.47;9.50;;;16.20;99.90;;;;;;4941208;29;20419;-66
2023/10/01 00:17:50;;;;;;;8.97;8.27;;;16.20;99.90;;;;;;4966096;28;20773;-66
2023/10/01 00:20:25;;;;;;;9.90;8.90;;;16.20;99.90;;;;;;4975717;28;20408;-66
2023/10/01 00:22:54;;;;;;;9.70;8.70;;;16.20;99.90;;;;;;4973969;28;20582;-67
2023/10/01 00:25:23;;;;;;;9.80;8.93;;;16.20;99.90;;;;;;4975666;28;20423;-66
2023/10/01 00:27:50;;;;;;;10.30;9.20;;;16.20;99.90;;;;;;4974192;28;20470;-66
2023/10/01 00:30:16;;;;;;;9.67;8.77;;;16.20;99.90;;;;;;4975212;28;20420;-66
2023/10/01 00:32:42;;;;;;;9.07;8.03;;;16.10;99.90;;;;;;4974970;28;20430;-60
2023/10/01 00:35:11;;;;;;;9.50;8.70;;;16.10;99.90;;;;;;4975090;28;20177;-66
2023/10/01 00:37:37;;;;;;;9.50;8.70;;;16.10;99.90;;;;;;4975185;28;20181;-63
2023/10/01 00:40:08;;;;;;;9.50;8.60;;;16.10;99.90;;;;;;4972625;28;20441;-67
2023/10/01 00:42:35;;;;;;;9.27;8.37;;;16.10;99.90;;;;;;4974597;28;20470;-66
2023/10/01 00:45:02;;;;;;;9.63;8.50;;;16.00;99.90;;;;;;4974416;28;20424;-66
2023/10/01 00:47:30;;;;;;;10.00;9.00;;;16.00;99.90;;;;;;4974890;28;20401;-66
2023/10/01 00:49:57;;;;;;;9.33;8.40;;;16.00;99.90;;;;;;4974302;28;20409;-66
2023/10/01 00:52:23;;;;;;;8.70;7.87;;;16.00;99.90;;;;;;4974084;28;20510;-66
2023/10/01 00:54:54;;;;;;;8.10;7.30;;;16.00;99.90;;;;;;4972531;28;20435;-66
2023/10/01 00:57:21;;;;;;;8.50;7.70;;;15.90;99.90;;;;;;4974929;28;20800;-66
2023/10/01 00:59:48;;;;;;;8.70;7.90;;;15.90;99.90;;;;;;4973755;28;20424;-66
2023/10/01 01:02:18;;;;;;;8.20;7.37;;;15.90;99.90;;;;;;4974634;28;20432;-66
2023/10/01 01:04:47;;;;;;;8.43;7.73;;;15.90;99.90;;;;;;4957327;28;20455;-62
2023/10/01 01:07:19;;;;;;;8.73;7.70;;;15.80;99.90;;;;;;4974731;28;20433;-66
2023/10/01 01:09:46;;;;;;;7.83;7.23;;;15.90;99.90;;;;;;4973870;28;20495;-60
2023/10/01 01:12:13;;;;;;;8.23;7.37;;;15.80;99.90;;;;;;4974691;28;20816;-66
2023/10/01 01:14:41;;;;;;;7.87;7.27;;;15.80;99.90;;;;;;4957374;28;20416;-66
2023/10/01 01:17:06;;;;;;;7.70;7.03;;;15.80;99.90;;;;;;4973852;28;20444;-66
2023/10/01 01:19:35;;;;;;;8.33;7.53;;;15.80;99.90;;;;;;4973196;28;20444;-66
2023/10/01 01:22:01;;;;;;;8.63;7.93;;;15.80;99.90;;;;;;4972993;28;20227;-66
2023/10/01 01:24:29;;;;;;;8.10;7.43;;;15.70;99.90;;;;;;4973339;28;20861;-66
2023/10/01 01:27:00;;;;;;;8.43;7.73;;;15.70;99.90;;;;;;4972529;28;20498;-66
2023/10/01 01:29:33;;;;;;;8.23;7.50;;;15.70;99.90;;;;;;4974506;28;20404;-66
2023/10/01 01:32:19;;;;;;;7.50;6.80;;;15.70;99.90;;;;;;4973352;28;20524;-65
2023/10/01 01:34:45;;;;;;;7.27;6.57;;;15.70;99.90;;;;;;4947208;28;20825;-60
2023/10/01 01:39:57;;;;;;;8.07;7.30;;;15.60;99.90;;;;;;4958659;28;20418;-66
2023/10/01 01:42:24;;;;;;;8.03;7.37;;;15.60;99.90;;;;;;4973881;28;20916;-66
2023/10/01 01:45:15;;;;;;;8.23;7.50;;;15.60;99.90;;;;;;4973631;28;20916;-66
2023/10/01 01:47:38;;;;;;;9.00;8.10;;;15.60;99.90;;;;;;4973293;28;20423;-66
2023/10/01 01:50:17;;;;;;;9.13;8.23;;;15.60;99.90;;;;;;4973256;28;20515;-66
2023/10/01 01:52:49;;;;;;;8.90;8.00;;;15.60;99.90;;;;;;4973391;28;20445;-66
2023/10/01 01:55:29;;;;;;;8.83;8.03;;;15.60;99.90;;;;;;4974256;28;20404;-66
2023/10/01 02:00:35;;;;;;;8.80;8.00;;;15.60;99.90;;;;;;4973407;28;20454;-66
2023/10/01 02:03:14;;;;;;;9.43;8.57;;;15.60;99.90;;;;;;4973009;28;20456;-66
2023/10/01 02:05:41;;;;;;;9.10;8.20;;;15.60;99.90;;;;;;4973896;28;20426;-66
2023/10/01 02:08:34;;;;;;;9.03;8.23;;;15.60;99.90;;;;;;4973001;28;20407;-67
2023/10/01 02:11:09;;;;;;;10.80;8.50;;;15.60;99.90;;;;;;4973036;28;20462;-65
2023/10/01 02:13:41;;;;;;;8.73;7.83;;;15.60;99.90;;;;;;4973384;28;20417;-64
2023/10/01 02:16:30;;;;;;;8.20;7.40;;;15.60;99.90;;;;;;4970293;28;20529;-66
2023/10/01 02:19:11;;;;;;;7.73;7.13;;;15.60;99.90;;;;;;4971125;28;20430;-66
2023/10/01 02:21:48;;;;;;;8.70;7.83;;;15.50;99.90;;;;;;4973426;28;20427;-66
2023/10/01 02:24:22;;;;;;;9.17;7.53;;;15.50;99.90;;;;;;4972333;28;20465;-64
2023/10/01 02:26:53;;;;;;;9.50;7.50;;;15.50;99.90;;;;;;4973017;28;20429;-61
2023/10/01 02:29:24;;;;;;;8.40;7.60;;;15.40;99.90;;;;;;4972801;28;20533;-65
2023/10/01 02:31:56;;;;;;;10.23;7.50;;;15.40;99.90;;;;;;4972227;28;20431;-60
2023/10/01 02:34:29;;;;;;;8.03;7.23;;;15.40;99.90;;;;;;4955514;28;20819;-65
2023/10/01 02:36:55;;;;;;;7.97;6.90;;;15.50;99.90;;;;;;4952250;29;20393;-65
2023/10/01 02:39:27;;;;;;;9.67;6.73;;;15.50;99.90;;;;;;4967759;28;20433;-67
2023/10/01 02:42:09;;;;;;;7.60;6.93;;;15.50;99.90;;;;;;4972647;28;20419;-66
2023/10/01 02:44:39;;;;;;;7.90;7.20;;;15.50;99.90;;;;;;4973467;28;20439;-67
2023/10/01 02:47:16;;;;;;;7.57;6.87;;;15.50;99.90;;;;;;4971620;28;20994;-66
2023/10/01 02:49:51;;;;;;;8.20;7.43;;;15.50;99.90;;;;;;4971822;28;20930;-67
2023/10/01 02:52:18;;;;;;;7.87;7.27;;;15.40;99.90;;;;;;4949086;28;20421;-67
2023/10/01 02:54:47;;;;;;;7.83;7.10;;;15.40;99.90;;;;;;4972720;28;20477;-67
2023/10/01 02:57:23;;;;;;;7.60;7.00;;;15.40;99.90;;;;;;4972229;28;20421;-66
2023/10/01 03:02:58;;;;;;;7.00;6.40;;;15.30;99.90;;;;;;4931473;29;20465;-66
2023/10/01 03:05:36;;;;;;;8.77;7.27;;;15.30;99.90;;;;;;4965275;28;20526;-67
2023/10/01 03:08:11;;;;;;;7.07;6.57;;;15.30;99.90;;;;;;4971911;28;20410;-67
2023/10/01 03:10:38;;;;;;;8.73;7.83;;;15.30;99.90;;;;;;4973107;28;20529;-66
2023/10/01 03:13:30;;;;;;;8.30;7.60;;;15.20;99.90;;;;;;4972262;28;20414;-67
2023/10/01 03:18:34;;;;;;;7.90;7.20;;;15.30;99.90;;;;;;4971984;28;20433;-67
2023/10/01 03:21:07;;;;;;;7.80;7.10;;;15.30;99.90;;;;;;4972242;28;20985;-67
2023/10/01 03:23:33;;;;;;;7.97;7.27;;;15.30;99.90;;;;;;4972407;28;20195;-66
2023/10/01 03:26:07;;;;;;;7.70;6.90;;;15.30;99.90;;;;;;4972232;28;20426;-66
2023/10/01 03:29:14;;;;;;;9.70;7.50;;;15.30;99.90;;;;;;4972034;28;20556;-66
2023/10/01 03:31:22;;;;;;;7.37;6.67;;;15.20;99.90;;;;;;4972730;28;20958;-66
2023/10/01 03:33:53;;;;;;;6.90;6.30;;;15.20;99.90;;;;;;4972664;28;20416;-67
2023/10/01 03:36:25;;;;;;;8.10;7.30;;;15.20;99.90;;;;;;4972984;28;20454;-66
2023/10/01 03:39:23;;;;;;;7.50;6.90;;;15.20;99.90;;;;;;4972806;28;20404;-61
2023/10/01 03:47:14;;;;;;;8.20;7.40;;;15.20;99.90;;;;;;4974918;28;20434;-67
2023/10/01 03:49:43;;;;;;;8.70;7.40;;;15.30;99.90;;;;;;4976235;28;20426;-66
2023/10/01 03:52:09;;;;;;;8.27;7.37;;;15.30;99.90;;;;;;4975040;28;20423;-66
2023/10/01 03:57:19;;;;;;;8.13;7.47;;;15.40;99.90;;;;;;4956387;29;20424;-66
2023/10/01 03:59:53;;;;;;;8.40;7.10;;;15.50;99.90;;;;;;4974318;28;20498;-66
2023/10/01 04:05:21;;;;;;;8.00;7.20;;;15.50;99.90;;;;;;4955946;29;20482;-66
2023/10/01 04:07:47;;;;;;;8.00;6.70;;;15.60;99.90;;;;;;4956525;29;20479;-67
2023/10/01 04:10:19;;;;;;;6.97;6.37;;;15.60;99.90;;;;;;4955865;29;20578;-66
2023/10/01 04:12:49;;;;;;;7.17;6.53;;;15.60;99.90;;;;;;4956346;29;20476;-66
2023/10/01 04:15:55;;;;;;;6.90;6.40;;;15.60;99.90;;;;;;4964581;28;20437;-67
2023/10/01 04:18:18;;;;;;;6.67;6.07;;;15.60;99.90;;;;;;4971576;28;20442;-66
2023/10/01 04:23:29;;;;;;;8.40;7.70;;;15.70;99.90;;;;;;4975322;28;20456;-66
2023/10/01 04:26:04;;;;;;;7.33;6.70;;;15.70;99.90;;;;;;4974344;28;20810;-61
2023/10/01 04:28:35;;;;;;;6.93;6.33;;;15.80;99.90;;;;;;4956858;28;20479;-67
2023/10/01 04:31:14;;;;;;;7.60;7.00;;;15.80;99.90;;;;;;4974735;28;20412;-67
2023/10/01 04:33:50;;;;;;;7.43;6.73;;;15.80;99.90;;;;;;4975401;28;20423;-67
2023/10/01 04:36:17;;;;;;;8.13;6.40;;;15.80;99.90;;;;;;4970763;28;20543;-67
2023/10/01 04:38:44;;;;;;;7.47;6.87;;;15.80;99.90;;;;;;4975300;28;20444;-67
2023/10/01 04:41:16;;;;;;;7.77;7.07;;;15.90;99.90;;;;;;4971986;28;20424;-66
2023/10/01 04:43:51;;;;;;;8.00;7.20;;;15.90;99.90;;;;;;4973547;28;20561;-67
2023/10/01 04:46:21;;;;;;;6.73;6.00;;;15.90;99.90;;;;;;4973010;28;20453;-68
2023/10/01 04:48:51;;;;;;;6.97;6.37;;;15.90;99.90;;;;;;4974881;28;20400;-67
2023/10/01 04:51:17;;;;;;;7.27;6.57;;;16.00;99.90;;;;;;4973308;28;20439;-68
2023/10/01 04:53:46;;;;;;;6.80;6.30;;;16.00;99.90;;;;;;4975169;28;20415;-69
2023/10/01 04:56:20;;;;;;;8.93;6.77;;;16.00;99.90;;;;;;4974273;28;20415;-71
2023/10/01 04:58:51;;;;;;;7.43;6.73;;;16.10;99.90;;;;;;4957503;28;20467;-67
2023/10/01 05:01:23;;;;;;;7.67;6.87;;;16.10;99.90;;;;;;4972401;28;20556;-67
2023/10/01 05:03:52;;;;;;;7.30;6.70;;;16.10;99.90;;;;;;4974031;28;20455;-67
2023/10/01 05:06:19;;;;;;;6.80;6.30;;;16.10;99.90;;;;;;4967199;28;21094;-67
2023/10/01 05:08:51;;;;;;;7.80;7.10;;;16.00;99.90;;;;;;4973771;28;20412;-67
2023/10/01 05:11:21;;;;;;;7.43;6.83;;;15.90;99.90;;;;;;4955613;28;20428;-67
2023/10/01 05:13:58;;;;;;;7.83;6.53;;;15.80;99.90;;;;;;4971588;28;20489;-67
2023/10/01 05:16:27;;;;;;;8.40;7.50;;;15.70;99.90;;;;;;4972571;28;20496;-67
2023/10/01 05:19:09;;;;;;;8.60;7.20;;;15.80;99.90;;;;;;4972559;28;20484;-68
2023/10/01 05:21:49;;;;;;;7.10;6.50;;;15.80;99.90;;;;;;4968783;28;20479;-67
2023/10/01 05:24:40;;;;;;;6.43;5.83;;;15.90;99.90;;;;;;4955431;28;20944;-67
2023/10/01 05:27:18;;;;;;;6.83;6.23;;;16.00;99.90;;;;;;4964731;28;20511;-68
2023/10/01 05:29:45;;;;;;;6.80;6.23;;;16.00;99.90;;;;;;4974544;28;20478;-69
2023/10/01 05:32:11;;;;;;;7.13;5.70;;;16.00;99.90;;;;;;4968528;28;20517;-69
2023/10/01 05:34:42;;;;;;;6.80;6.20;;;16.10;99.90;;;;;;4970617;28;20459;-68
2023/10/01 05:37:09;;;;;;;7.53;6.50;;;16.10;99.90;;;;;;4971814;28;20424;-68
2023/10/01 05:39:57;;;;;;;7.00;6.40;;;16.10;99.90;;;;;;4973134;28;20920;-68
2023/10/01 05:42:28;;;;;;;7.13;6.53;;;16.10;99.90;;;;;;4956466;28;20440;-68
2023/10/01 05:44:59;;;;;;;6.70;6.17;;;16.10;99.90;;;;;;4961178;28;20465;-69
2023/10/01 05:47:41;;;;;;;8.63;6.50;;;16.00;99.90;;;;;;4973506;28;20415;-69
2023/10/01 05:50:12;;;;;;;6.63;6.03;;;16.10;99.90;;;;;;4973354;28;20459;-68
2023/10/01 05:52:40;;;;;;;10.47;6.60;;;16.00;99.90;;;;;;4973371;28;20415;-68
2023/10/01 05:55:12;;;;;;;6.70;5.70;;;16.00;99.90;;;;;;4973217;28;20407;-68
2023/10/01 05:57:38;;;;;;;6.67;5.70;;;16.00;99.90;;;;;;4973512;28;20522;-68
2023/10/01 06:00:16;;;;;;;6.77;6.07;;;16.00;99.90;;;;;;4972568;28;20432;-66
2023/10/01 06:03:00;;;;;;;7.33;6.73;;;16.00;99.90;;;;;;4948517;29;20923;-68
2023/10/01 06:05:43;;;;;;;6.93;6.23;;;16.00;99.90;;;;;;4970690;28;20436;-68
2023/10/01 06:08:18;;;;;;;6.80;6.10;;;16.00;99.90;;;;;;4972679;28;20776;-68
2023/10/01 06:10:48;;;;;;;6.40;5.83;;;15.90;99.90;;;;;;4973361;28;20777;-67
2023/10/01 06:13:14;;;;;;;6.40;5.90;;;15.90;99.90;;;;;;4973170;28;20419;-68
2023/10/01 06:15:40;;;;;;;6.80;6.30;;;15.90;99.90;;;;;;4973750;28;20474;-68
2023/10/01 06:18:05;;;;;;;6.30;5.70;;;15.90;99.90;;;;;;4972234;28;20431;-67
2023/10/01 06:20:33;;;;;;;6.57;5.90;;;15.90;99.90;;;;;;4972425;28;20254;-67
2023/10/01 06:22:59;;;;;;;7.03;6.33;;;15.90;99.90;;;;;;4973486;28;20220;-69
2023/10/01 06:25:43;;;;;;;7.00;6.40;;;15.90;99.90;;;;;;4972453;28;20431;-68
2023/10/01 06:28:09;;;;;;;7.00;6.33;;;15.90;99.90;;;;;;4971828;28;20978;-67
2023/10/01 06:30:43;;;;;;;6.80;6.07;;;16.00;99.90;;;;;;4965859;28;20443;-68
2023/10/01 06:33:24;;;;;;;6.93;6.33;;;16.00;99.90;;;;;;4971718;28;20494;-67
2023/10/01 06:38:38;;;;;;;7.47;6.60;;;16.00;99.90;;;;;;4970238;28;20435;-68
2023/10/01 06:41:06;;;;;;;8.00;7.20;;;16.00;99.90;;;;;;4970606;28;20534;-62
2023/10/01 06:43:44;;;;;;;7.80;7.00;;;16.10;99.90;;;;;;4972762;28;20468;-68
2023/10/01 06:46:13;;;;;;;7.67;6.90;;;16.10;99.90;;;;;;4953417;29;20436;-68
2023/10/01 06:48:40;;;;;;;7.97;7.13;;;16.10;99.90;;;;;;4957993;28;20452;-68
2023/10/01 06:51:06;;;;;;;7.63;6.93;;;16.10;99.90;;;;;;4920445;29;20826;-62
2023/10/01 06:53:45;;;;;;;7.97;6.13;;;16.10;99.90;;;;;;4961164;28;20823;-68
2023/10/01 06:56:17;;;;;;;6.70;6.20;;;16.20;99.90;;;;;;4967555;28;20514;-72
2023/10/01 07:01:34;;;;;;;8.83;7.77;;;16.60;99.90;;;;;;4954589;28;20518;-72
2023/10/01 07:04:05;;;;;;;8.30;7.50;;;16.90;99.90;;;;;;4970192;28;21117;-68
2023/10/01 07:06:36;;;;;;;7.23;6.50;;;17.10;99.90;;;;;;4967742;28;20502;-68
2023/10/01 07:09:24;;;;;;;6.20;5.80;;;17.40;99.90;;;;;;4970243;28;20836;-68
2023/10/01 07:11:57;;;;;;;7.53;6.53;;;17.70;99.90;;;;;;4972740;28;20431;-71
2023/10/01 07:14:43;;;;;;;6.30;5.70;;;17.90;99.90;;;;;;4968566;28;20487;-72
2023/10/01 07:17:18;;;;;;;6.63;5.53;;;18.20;99.90;;;;;;4953194;28;20412;-70
2023/10/01 07:19:59;;;;;;;7.17;6.47;;;18.50;99.90;;;;;;4957886;28;20423;-71
2023/10/01 07:22:32;;;;;;;9.50;5.90;;;18.80;99.90;;;;;;4968182;28;20431;-69
2023/10/01 07:25:04;;;;;;;7.13;6.43;;;19.00;99.90;;;;;;4973740;28;20501;-70
2023/10/01 07:27:30;;;;;;;7.77;7.07;;;19.20;99.90;;;;;;4974089;28;20512;-69
2023/10/01 07:29:57;;;;;;;10.53;7.50;;;19.30;99.90;;;;;;4969370;28;20436;-69
2023/10/01 07:32:25;;;;;;;10.23;8.20;;;19.40;99.90;;;;;;4968301;28;20455;-69
2023/10/01 07:34:58;;;;;;;8.67;7.13;;;19.40;99.90;;;;;;4973268;28;20924;-69
2023/10/01 07:37:31;;;;;;;8.13;6.70;;;19.50;99.90;;;;;;4975475;28;20408;-69
2023/10/01 07:40:09;;;;;;;6.80;6.20;;;19.60;99.90;;;;;;4975455;28;20458;-69
2023/10/01 07:42:46;;;;;;;7.60;6.13;;;19.60;99.90;;;;;;4966483;28;20409;-69
2023/10/01 07:45:16;;;;;;;10.40;6.60;;;19.70;99.90;;;;;;4970511;28;20434;-69
2023/10/01 07:47:43;;;;;;;9.07;7.10;;;19.70;99.90;;;;;;4957667;28;20435;-69
2023/10/01 07:50:12;;;;;;;7.47;6.77;;;19.80;99.90;;;;;;4967034;28;20539;-64
2023/10/01 07:52:41;;;;;;;7.53;6.67;;;19.80;99.90;;;;;;4970788;28;20438;-68
2023/10/01 07:57:52;;;;;;;8.43;7.03;;;20.00;99.90;;;;;;4970228;28;20416;-68
2023/10/01 08:00:34;;;;;;;8.73;7.40;;;20.00;99.90;;;;;;4969931;28;20492;-69
2023/10/01 08:05:47;;;;;;;7.90;7.10;;;20.00;99.90;;;;;;4972017;28;20424;-69
2023/10/01 08:08:15;;;;;;;8.03;7.23;;;20.10;99.90;;;;;;4973349;28;20430;-68
2023/10/01 08:10:43;;;;;;;10.20;7.80;;;20.10;99.90;;;;;;4969133;28;20474;-68
2023/10/01 08:13:23;;;;;;;8.47;7.53;;;20.20;99.90;;;;;;4969196;28;20783;-63
2023/10/01 08:16:01;;;;;;;10.80;8.77;;;20.20;99.90;;;;;;4967028;28;20443;-68
2023/10/01 08:18:34;;;;;;;9.60;8.40;;;20.20;99.90;;;;;;4968401;28;21201;-70
2023/10/01 08:21:15;;;;;;;9.50;8.10;;;20.30;99.90;;;;;;4956509;29;20414;-69
2023/10/01 08:23:54;;;;;;;9.93;9.03;;;20.30;99.90;;;;;;4967756;28;20539;-69
2023/10/01 08:29:07;;;;;;;10.50;9.20;;;20.40;99.90;;;;;;4962300;28;20908;-70
2023/10/01 08:34:23;;;;;;;9.53;8.27;;;20.50;99.90;;;;;;4971215;28;20506;-69
2023/10/01 08:37:06;;;;;;;10.10;9.10;;;20.60;99.90;;;;;;4972262;28;20453;-68
2023/10/01 08:39:53;;;;;;;10.40;8.53;;;20.60;99.90;;;;;;4974325;28;20903;-69
2023/10/01 08:42:19;;;;;;;9.40;8.40;;;20.70;99.90;;;;;;4974563;28;20459;-67
2023/10/01 08:44:54;;;;;;;19.60;15.10;;;20.70;99.90;;;;;;4966482;28;20463;-68
2023/10/01 08:47:37;;;;;;;68.27;52.90;;;20.80;99.90;;;;;;4963271;28;20420;-68
2023/10/01 08:52:57;;;;;;;61.03;47.97;;;20.80;99.90;;;;;;4969274;28;20431;-67
2023/10/01 08:55:35;;;;;;;17.57;13.70;;;20.80;99.90;;;;;;4964375;28;20416;-68
2023/10/01 08:58:13;;;;;;;10.77;9.07;;;20.90;99.90;;;;;;4964523;28;20585;-67
2023/10/01 09:00:48;;;;;;;8.70;7.53;;;21.00;99.90;;;;;;4969659;28;20506;-68
2023/10/01 09:03:28;;;;;;;15.10;12.67;;;20.90;99.90;;;;;;4967306;28;20931;-63
2023/10/01 09:06:03;;;;;;;18.63;14.33;;;21.00;99.90;;;;;;4969211;28;20494;-67
2023/10/01 09:08:33;;;;;;;10.40;9.30;;;21.10;99.90;;;;;;4969976;28;20411;-68
2023/10/01 09:11:02;;;;;;;8.90;7.97;;;21.20;99.90;;;;;;4970629;28;20951;-68
2023/10/01 09:13:30;;;;;;;12.83;9.60;;;21.20;99.90;;;;;;4966234;28;20924;-67
2023/10/01 09:16:10;;;;;;;10.80;8.07;;;21.30;99.90;;;;;;4964572;28;20518;-68
2023/10/01 09:18:53;;;;;;;9.60;8.47;;;21.50;99.90;;;;;;4963272;28;20571;-68
2023/10/01 09:21:28;;;;;;;10.37;8.80;;;21.60;99.90;;;;;;4969939;28;20431;-67
2023/10/01 09:23:59;;;;;;;9.37;8.03;;;21.90;99.90;;;;;;4957363;28;20955;-68
2023/10/01 09:26:41;;;;;;;10.40;8.87;;;21.90;99.90;;;;;;4972359;28;20959;-68
2023/10/01 09:29:21;;;;;;;11.53;9.80;;;22.10;99.90;;;;;;4969586;28;20465;-68
2023/10/01 09:31:57;;;;;;;9.70;7.70;;;22.30;99.90;;;;;;4974062;28;20935;-68
2023/10/01 09:34:31;;;;;;;13.57;9.87;;;22.40;99.90;;;;;;4970679;28;20431;-66
2023/10/01 09:37:00;;;;;;;12.53;9.93;;;22.60;99.90;;;;;;4967629;28;20545;-67
2023/10/01 09:39:38;;;;;;;11.87;9.07;;;22.70;99.90;;;;;;4972687;28;20773;-68
2023/10/01 09:42:22;;;;;;;21.73;18.33;;;22.80;99.90;;;;;;4967910;28;20423;-68
2023/10/01 09:44:53;;;;;;;47.43;36.67;;;23.00;99.90;;;;;;4967463;28;20459;-68
2023/10/01 09:47:27;;;;;;;79.13;67.20;;;23.10;99.40;;;;;;4972785;28;20765;-67
2023/10/01 09:49:54;;;;;;;11.63;9.83;;;23.20;99.90;;;;;;4961457;28;20512;-68
2023/10/01 09:52:27;;;;;;;13.50;12.10;;;23.30;99.40;;;;;;4954828;28;20423;-67
2023/10/01 09:55:10;;;;;;;9.10;8.20;;;23.40;99.60;;;;;;4965444;28;20503;-68
2023/10/01 09:57:39;;;;;;;8.93;7.97;;;23.60;99.00;;;;;;4962381;28;20479;-67
2023/10/01 10:00:17;;;;;;;10.73;7.93;;;23.80;98.20;;;;;;4970451;28;20424;-68
2023/10/01 10:02:56;;;;;;;9.33;8.40;;;23.90;97.90;;;;;;4967785;28;20439;-68
2023/10/01 10:05:26;;;;;;;8.90;7.80;;;24.10;97.20;;;;;;4964883;28;20426;-68
2023/10/01 10:07:56;;;;;;;10.10;8.37;;;24.20;97.00;;;;;;4965350;28;20431;-68
2023/10/01 10:10:26;;;;;;;12.00;8.43;;;24.30;96.50;;;;;;4965098;28;20470;-68
2023/10/01 10:12:56;;;;;;;10.13;7.23;;;24.40;97.20;;;;;;4970276;28;20423;-65
2023/10/01 10:16:01;;;;;;;7.20;6.50;;;24.50;96.10;;;;;;4954743;28;20404;-70
2023/10/01 10:18:32;;;;;;;8.53;7.20;;;24.70;97.10;;;;;;4964456;28;20490;-70
2023/10/01 10:20:59;;;;;;;8.53;7.70;;;24.90;96.20;;;;;;4967656;28;20421;-68
2023/10/01 10:23:31;;;;;;;7.60;6.60;;;25.00;95.00;;;;;;4966347;28;20463;-68
2023/10/01 10:26:35;;;;;;;9.00;6.70;;;25.20;96.40;;;;;;4967575;28;20420;-70
2023/10/01 10:29:10;;;;;;;8.23;7.33;;;25.50;95.60;;;;;;4966301;28;20531;-70
2023/10/01 10:31:37;;;;;;;9.93;8.43;;;25.70;94.10;;;;;;4966320;28;20427;-71
2023/10/01 10:34:26;;;;;;;12.43;10.50;;;25.90;93.30;;;;;;4966566;28;20431;-70
2023/10/01 10:36:57;;;;;;;8.03;7.17;;;26.00;92.50;;;;;;4967830;28;20483;-70
2023/10/01 10:39:50;;;;;;;10.33;7.43;;;26.10;91.90;;;;;;4965861;28;20416;-70
2023/10/01 10:42:28;;;;;;;9.60;7.33;;;26.10;92.40;;;;;;4956261;28;20853;-66
2023/10/01 10:45:22;;;;;;;8.77;7.60;;;26.10;92.40;;;;;;4969945;28;20467;-71
2023/10/01 10:48:02;;;;;;;8.03;7.23;;;26.30;91.90;;;;;;4963533;28;20504;-69
2023/10/01 10:51:02;;;;;;;10.60;7.00;;;26.30;91.60;;;;;;4965494;28;20478;-69
2023/10/01 10:53:29;;;;;;;9.67;6.80;;;26.40;92.00;;;;;;4956162;28;20422;-69
2023/10/01 10:56:10;;;;;;;9.33;7.87;;;26.50;92.30;;;;;;4974235;28;20916;-69
2023/10/01 10:58:40;;;;;;;8.13;7.20;;;26.70;91.80;;;;;;4976413;28;20439;-69
2023/10/01 11:01:24;;;;;;;9.40;7.60;;;26.80;90.60;;;;;;4976115;28;20459;-76
2023/10/01 11:03:58;;;;;;;92.70;82.60;;;26.80;91.20;;;;;;4959747;28;20471;-71
2023/10/01 11:06:29;;;;;;;18.20;16.33;;;26.80;90.50;;;;;;4971537;28;20407;-70
2023/10/01 11:08:56;;;;;;;9.10;8.20;;;26.80;90.20;;;;;;4976541;28;20444;-70
2023/10/01 11:11:39;;;;;;;8.00;7.00;;;26.80;90.60;;;;;;4976111;28;20430;-66
2023/10/01 11:14:11;;;;;;;9.53;7.30;;;27.00;91.20;;;;;;4976467;28;20931;-68
2023/10/01 11:16:40;;;;;;;8.40;7.50;;;27.00;90.90;;;;;;4975616;28;20415;-78
2023/10/01 11:19:14;;;;;;;10.40;9.30;;;27.10;90.40;;;;;;4972957;28;20423;-78
2023/10/01 11:21:44;;;;;;;10.07;9.03;;;26.70;91.10;;;;;;4962632;28;20657;-79
2023/10/01 11:24:16;;;;;;;8.37;7.50;;;26.40;90.80;;;;;;4967968;28;20975;-79
2023/10/01 11:27:22;;;;;;;13.53;8.87;;;26.30;91.00;;;;;;4970138;28;20416;-80
2023/10/01 11:30:12;;;;;;;10.00;7.27;;;26.20;91.60;;;;;;4964606;28;20435;-77
2023/10/01 11:33:12;;;;;;;10.03;9.03;;;26.10;91.50;;;;;;4964154;28;20910;-78
2023/10/01 11:36:06;;;;;;;8.83;7.93;;;26.10;91.20;;;;;;4974187;28;20461;-78
2023/10/01 11:38:37;;;;;;;10.20;8.60;;;26.00;90.60;;;;;;4974146;28;20467;-76
2023/10/01 11:41:09;;;;;;;8.50;7.67;;;26.00;91.60;;;;;;4973490;28;20426;-82
2023/10/01 11:43:59;;;;;;;10.50;8.10;;;25.50;91.10;;;;;;4975216;28;20877;-78
2023/10/01 11:49:15;;;;;;;63.60;48.20;;;25.50;92.40;;;;;;4976492;28;20396;-81
2023/10/01 11:51:50;;;;;;;156.83;119.60;;;25.40;91.40;;;;;;4975530;28;20434;-79
2023/10/01 11:54:17;;;;;;;11.93;9.90;;;25.50;92.10;;;;;;4975375;28;20981;-78
2023/10/01 11:56:45;;;;;;;10.87;7.40;;;25.60;92.60;;;;;;4974879;28;20428;-79
2023/10/01 11:59:18;;;;;;;9.70;8.27;;;25.60;91.60;;;;;;4974008;28;20439;-76
2023/10/01 12:01:50;;;;;;;8.90;7.97;;;25.30;92.30;;;;;;4957659;28;20450;-79
2023/10/01 12:04:21;;;;;;;7.83;7.03;;;25.10;93.00;;;;;;4955273;28;20515;-81
2023/10/01 12:06:54;;;;;;;12.20;8.97;;;24.90;92.00;;;;;;4957733;28;20463;-80
2023/10/01 12:09:20;;;;;;;9.57;8.03;;;24.90;93.30;;;;;;4958158;28;20423;-80
2023/10/01 12:12:03;;;;;;;8.97;7.83;;;24.90;93.20;;;;;;4974882;28;20420;-78
2023/10/01 12:14:32;;;;;;;9.00;7.67;;;24.80;94.80;;;;;;4974100;28;20462;-78
2023/10/01 12:17:01;;;;;;;9.73;8.00;;;24.90;94.30;;;;;;4975410;28;20423;-79
2023/10/01 12:19:27;;;;;;;10.30;8.47;;;24.80;93.40;;;;;;4974885;28;20423;-77
2023/10/01 12:22:05;;;;;;;9.90;8.77;;;24.60;93.80;;;;;;4975215;28;20604;-79
2023/10/01 12:24:39;;;;;;;10.00;8.50;;;24.50;94.00;;;;;;4957100;28;20496;-78
2023/10/01 12:27:11;;;;;;;10.87;8.27;;;24.30;93.80;;;;;;4956757;28;20498;-78
2023/10/01 12:29:42;;;;;;;9.83;7.87;;;24.20;94.40;;;;;;4974798;28;20426;-78
2023/10/01 12:32:10;;;;;;;8.97;8.03;;;24.20;94.70;;;;;;4972568;28;20420;-76
2023/10/01 12:34:36;;;;;;;45.30;34.83;;;24.10;95.10;;;;;;4974018;28;20427;-79
2023/10/01 12:37:07;;;;;;;32.73;27.53;;;23.90;94.60;;;;;;4975570;28;20412;-77
2023/10/01 12:39:34;;;;;;;26.63;22.47;;;23.50;95.70;;;;;;4974728;28;20404;-77
2023/10/01 12:42:04;;;;;;;14.93;11.30;;;23.50;96.20;;;;;;4974902;28;20431;-75
2023/10/01 12:44:32;;;;;;;10.27;8.83;;;23.60;96.30;;;;;;4974015;28;20499;-75
2023/10/01 12:47:06;;;;;;;13.50;9.60;;;23.50;95.10;;;;;;4974902;28;20438;-77
2023/10/01 12:49:33;;;;;;;11.87;9.80;;;23.50;95.30;;;;;;4973994;28;20400;-78
2023/10/01 12:52:03;;;;;;;16.90;12.30;;;23.50;95.70;;;;;;4974591;28;20444;-78
2023/10/01 12:54:29;;;;;;;10.07;8.70;;;23.50;95.90;;;;;;4973844;28;20416;-77
2023/10/01 12:57:18;;;;;;;11.10;9.90;;;23.50;95.10;;;;;;4973523;28;20479;-79
2023/10/01 12:59:46;;;;;;;10.97;9.33;;;23.40;95.70;;;;;;4955766;28;20319;-79
2023/10/01 13:02:28;;;;;;;11.73;9.63;;;23.40;96.10;;;;;;4974303;28;20434;-78
2023/10/01 13:05:43;;;;;;;9.77;8.57;;;23.40;96.00;;;;;;4974455;28;20452;-78
2023/10/01 13:07:56;;;;;;;10.00;8.33;;;23.50;96.20;;;;;;4969832;28;20432;-79
2023/10/01 13:10:37;;;;;;;9.93;8.13;;;23.40;96.50;;;;;;4972629;28;20457;-77
2023/10/01 13:13:05;;;;;;;9.83;8.07;;;23.30;96.40;;;;;;4974079;28;20895;-80
2023/10/01 13:15:37;;;;;;;11.63;8.70;;;23.40;96.20;;;;;;4954227;28;20428;-76
2023/10/01 13:18:11;;;;;;;11.03;8.70;;;23.40;96.10;;;;;;4974028;28;20450;-79
2023/10/01 13:20:58;;;;;;;11.03;8.23;;;23.40;96.50;;;;;;4970679;28;20769;-77
2023/10/01 13:23:29;;;;;;;9.77;8.73;;;23.40;96.00;;;;;;4972348;28;20448;-68
2023/10/01 13:26:09;;;;;;;10.30;8.23;;;23.30;97.60;;;;;;4974028;28;20428;-76
2023/10/01 13:28:46;;;;;;;11.17;8.43;;;23.30;96.80;;;;;;4972647;28;20872;-78
2023/10/01 14:09:48;;;;;;;9.17;8.07;;;23.50;97.70;;;;;;4966353;28;20424;-77
2023/10/01 14:15:20;;;;;;;11.90;8.13;;;23.60;97.60;;;;;;4969412;28;20412;-73
2023/10/01 14:17:53;;;;;;;14.77;9.37;;;23.70;97.50;;;;;;4954567;28;20973;-72
2023/10/01 14:23:28;;;;;;;9.80;8.33;;;23.70;97.10;;;;;;4968940;28;20437;-71
2023/10/01 14:25:58;;;;;;;9.17;7.70;;;23.70;97.00;;;;;;4972477;28;20483;-71
2023/10/01 14:28:26;;;;;;;10.50;8.57;;;23.80;97.20;;;;;;4953230;28;20459;-72
2023/10/01 14:31:11;;;;;;;10.57;8.80;;;23.90;96.90;;;;;;4970771;28;20443;-71
2023/10/01 14:33:40;;;;;;;11.23;8.63;;;23.90;96.30;;;;;;4970965;28;20419;-71
2023/10/01 14:36:06;;;;;;;8.60;7.70;;;23.90;96.70;;;;;;4968654;28;20430;-72
2023/10/01 14:38:37;;;;;;;297.53;195.30;;;23.80;96.50;;;;;;4966386;28;20471;-71
2023/10/01 14:41:15;;;;;;;36.27;29.20;;;23.80;96.70;;;;;;4967472;28;20428;-66
2023/10/01 14:43:48;;;;;;;10.10;8.20;;;23.80;97.10;;;;;;4968324;28;20464;-72
2023/10/01 14:46:21;;;;;;;12.07;9.50;;;23.70;97.40;;;;;;4969785;28;20511;-72